Time;durP1;ratioP1;P1;durP2;ratioP2;P2;SDS_P1;SDS_P2;PMS_P1;PMS_P2;Temp;Humidity;BMP_temperature;BMP_pressure;BME280_temperature;BME280_humidity;BME280_pressure;Samples;Min_cycle;Max_cycle;Signal;HPM_P1;HPM_P2
2022/02/07 00:08:19;;;;;;;;;1.00;1.00;;;;;;;;2;261075557;261075557;-85
2022/02/07 00:16:36;;;;;;;;;1.50;1.50;;;;;;;;2;261080840;261080840;-85
2022/02/07 00:25:37;;;;;;;;;0.50;0.50;;;;;;;;2;261077294;261077294;-87
2022/02/07 00:33:53;;;;;;;;;0.50;0.50;;;;;;;;2;261081051;261081051;-85
2022/02/07 00:43:14;;;;;;;;;5.00;1.00;;;;;;;;2;261078501;261078501;-85
2022/02/07 00:51:30;;;;;;;;;0.00;0.00;;;;;;;;2;261079102;261079102;-86
2022/02/07 01:00:31;;;;;;;;;1.50;1.50;;;;;;;;2;261077829;261077829;-86
2022/02/07 01:08:51;;;;;;;;;0.50;0.50;;;;;;;;2;261077419;261077419;-85
2022/02/07 02:01:42;;;;;;;;;0.50;0.50;;;;;;;;2;261078663;261078663;-87
2022/02/07 02:10:45;;;;;;;;;0.00;0.00;;;;;;;;2;261077960;261077960;-87
2022/02/07 02:45:56;;;;;;;;;0.50;0.50;;;;;;;;2;261076514;261076514;-87
2022/02/07 02:54:11;;;;;;;;;0.00;0.00;;;;;;;;2;261077665;261077665;-87
2022/02/07 03:03:12;;;;;;;;;0.00;0.00;;;;;;;;2;261079355;261079355;-87
2022/02/07 03:11:28;;;;;;;;;0.50;0.50;;;;;;;;2;261079076;261079076;-87
2022/02/07 03:20:28;;;;;;;;;0.00;0.00;;;;;;;;2;261077124;261077124;-87
2022/02/07 03:28:44;;;;;;;;;1.00;1.00;;;;;;;;2;261080730;261080730;-87
2022/02/07 03:37:45;;;;;;;;;1.50;1.50;;;;;;;;2;261075741;261075741;-87
2022/02/07 03:46:01;;;;;;;;;0.00;0.00;;;;;;;;2;261079482;261079482;-87
2022/02/07 03:55:01;;;;;;;;;0.00;0.00;;;;;;;;2;261079565;261079565;-87
2022/02/07 04:03:17;;;;;;;;;0.50;0.50;;;;;;;;2;261078262;261078262;-87
2022/02/07 04:12:22;;;;;;;;;0.00;0.00;;;;;;;;2;261078663;261078663;-87
2022/02/07 04:20:38;;;;;;;;;0.50;0.50;;;;;;;;2;261078159;261078159;-87
2022/02/07 04:29:39;;;;;;;;;0.00;0.00;;;;;;;;2;261073013;261073013;-86
2022/02/07 04:37:54;;;;;;;;;0.00;0.00;;;;;;;;2;261071658;261071658;-87
2022/02/07 04:47:10;;;;;;;;;12.00;1.00;;;;;;;;2;261064157;261064157;-87
2022/02/07 05:04:38;;;;;;;;;4.50;1.50;;;;;;;;2;261077232;261077232;-87
2022/02/07 05:22:12;;;;;;;;;0.50;0.50;;;;;;;;2;261079738;261079738;-87
2022/02/07 05:30:28;;;;;;;;;0.00;0.00;;;;;;;;2;261077718;261077718;-87
2022/02/07 05:39:33;;;;;;;;;1.50;1.50;;;;;;;;2;261078897;261078897;-86
2022/02/07 05:47:49;;;;;;;;;1.00;1.00;;;;;;;;2;261076580;261076580;-87
2022/02/07 05:56:49;;;;;;;;;1.50;1.50;;;;;;;;2;261079208;261079208;-87
2022/02/07 06:05:05;;;;;;;;;1.50;1.50;;;;;;;;2;261075674;261075674;-87
2022/02/07 06:14:05;;;;;;;;;0.50;0.50;;;;;;;;2;261075900;261075900;-87
2022/02/07 06:22:21;;;;;;;;;13.00;2.00;;;;;;;;2;261077212;261077212;-87
2022/02/07 06:31:21;;;;;;;;;4.50;1.00;;;;;;;;2;261080262;261080262;-87
2022/02/07 06:39:36;;;;;;;;;2.50;1.00;;;;;;;;2;261077529;261077529;-85
2022/02/07 06:48:37;;;;;;;;;15.50;1.00;;;;;;;;2;261077837;261077837;-85
2022/02/07 06:56:53;;;;;;;;;0.50;0.50;;;;;;;;2;261077942;261077942;-85
2022/02/07 07:05:54;;;;;;;;;3.00;0.00;;;;;;;;2;261078434;261078434;-84
2022/02/07 07:23:31;;;;;;;;;0.00;0.00;;;;;;;;2;261080065;261080065;-83
2022/02/07 07:31:51;;;;;;;;;1.50;1.50;;;;;;;;2;261078499;261078499;-83
2022/02/07 07:40:52;;;;;;;;;0.50;0.50;;;;;;;;2;261080446;261080446;-84
2022/02/07 07:49:16;;;;;;;;;2.00;2.00;;;;;;;;2;261078089;261078089;-85
2022/02/07 08:07:00;;;;;;;;;5.50;5.50;;;;;;;;2;261079209;261079209;-88
2022/02/07 08:16:00;;;;;;;;;1.00;1.00;;;;;;;;2;261077365;261077365;-89
2022/02/07 08:24:16;;;;;;;;;1.00;1.00;;;;;;;;2;261080452;261080452;-87
2022/02/07 08:33:16;;;;;;;;;5.00;5.00;;;;;;;;2;261080562;261080562;-88
2022/02/07 08:41:32;;;;;;;;;16.00;4.00;;;;;;;;2;261081430;261081430;-90
2022/02/07 08:50:33;;;;;;;;;3.00;3.00;;;;;;;;2;261077334;261077334;-90
2022/02/07 08:58:49;;;;;;;;;7.50;7.50;;;;;;;;2;261078219;261078219;-91
2022/02/07 09:08:08;;;;;;;;;8.00;4.00;;;;;;;;2;261078440;261078440;-91
2022/02/07 09:16:29;;;;;;;;;4.50;4.50;;;;;;;;2;261075076;261075076;-91
2022/02/07 09:25:30;;;;;;;;;16.00;5.50;;;;;;;;2;261074707;261074707;-90
2022/02/07 09:33:46;;;;;;;;;9.00;5.00;;;;;;;;2;261077466;261077466;-91
2022/02/07 09:42:47;;;;;;;;;9.00;5.00;;;;;;;;2;261076203;261076203;-90
2022/02/07 09:51:02;;;;;;;;;2.50;2.50;;;;;;;;2;261077566;261077566;-90
2022/02/07 10:00:06;;;;;;;;;6.00;6.00;;;;;;;;2;261075045;261075045;-90
2022/02/07 10:08:45;;;;;;;;;9.50;9.50;;;;;;;;2;261073536;261073536;-90
2022/02/07 10:17:58;;;;;;;;;8.00;4.00;;;;;;;;2;261075174;261075174;-90
2022/02/07 10:44:32;;;;;;;;;0.50;0.50;;;;;;;;2;261078272;261078272;-88
2022/02/07 10:53:44;;;;;;;;;0.50;0.50;;;;;;;;2;261078202;261078202;-88
2022/02/07 11:20:11;;;;;;;;;5.00;5.00;;;;;;;;2;261077471;261077471;-89
2022/02/07 11:29:31;;;;;;;;;2.50;2.50;;;;;;;;2;261075350;261075350;-91
2022/02/07 11:38:08;;;;;;;;;0.00;0.00;;;;;;;;2;261075632;261075632;-90
2022/02/07 11:47:13;;;;;;;;;0.50;0.50;;;;;;;;2;261074475;261074475;-91
2022/02/07 11:55:34;;;;;;;;;1.50;1.50;;;;;;;;2;261067038;261067038;-90
2022/02/07 12:04:41;;;;;;;;;7.00;7.00;;;;;;;;2;261062828;261062828;-93
2022/02/07 12:13:01;;;;;;;;;28.00;1.50;;;;;;;;2;261073457;261073457;-89
2022/02/07 12:22:12;;;;;;;;;3.00;3.00;;;;;;;;2;261072441;261072441;-89
2022/02/07 12:30:42;;;;;;;;;6.00;6.00;;;;;;;;2;261077007;261077007;-87
2022/02/07 12:39:47;;;;;;;;;4.00;2.50;;;;;;;;2;261076590;261076590;-87
2022/02/07 12:48:02;;;;;;;;;3.50;3.50;;;;;;;;2;261080458;261080458;-88
2022/02/07 12:57:03;;;;;;;;;6.50;3.00;;;;;;;;2;261079103;261079103;-88
2022/02/07 13:05:20;;;;;;;;;3.00;3.00;;;;;;;;2;261078007;261078007;-86
2022/02/07 13:14:21;;;;;;;;;2.00;2.00;;;;;;;;2;261077130;261077130;-86
2022/02/07 13:22:36;;;;;;;;;5.00;1.50;;;;;;;;2;261077750;261077750;-87
2022/02/07 13:31:37;;;;;;;;;1.50;1.50;;;;;;;;2;261074555;261074555;-88
2022/02/07 13:39:57;;;;;;;;;1.50;1.50;;;;;;;;2;261076016;261076016;-86
2022/02/07 13:48:58;;;;;;;;;5.00;2.00;;;;;;;;2;261075816;261075816;-86
2022/02/07 13:57:14;;;;;;;;;2.50;2.50;;;;;;;;2;261076397;261076397;-87
2022/02/07 14:06:15;;;;;;;;;1.00;1.00;;;;;;;;2;261076310;261076310;-84
2022/02/07 14:14:31;;;;;;;;;14.00;2.00;;;;;;;;2;261079644;261079644;-84
2022/02/07 14:23:33;;;;;;;;;4.50;3.00;;;;;;;;2;261076579;261076579;-85
2022/02/07 14:31:49;;;;;;;;;3.00;3.00;;;;;;;;2;261077694;261077694;-87
2022/02/07 14:40:49;;;;;;;;;2.50;2.50;;;;;;;;2;261078645;261078645;-85
2022/02/07 14:49:04;;;;;;;;;5.00;2.00;;;;;;;;2;261075288;261075288;-86
2022/02/07 14:58:05;;;;;;;;;0.50;0.50;;;;;;;;2;261076673;261076673;-86
2022/02/07 15:06:20;;;;;;;;;14.50;2.50;;;;;;;;2;261074598;261074598;-86
2022/02/07 15:18:40;;;;;;;;;3.50;3.50;;;;;;;;2;261073771;261073771;-89
2022/02/07 15:26:55;;;;;;;;;2.50;2.50;;;;;;;;2;261074325;261074325;-87
2022/02/07 15:35:56;;;;;;;;;4.00;4.00;;;;;;;;2;261075397;261075397;-87
2022/02/07 15:44:11;;;;;;;;;5.50;4.00;;;;;;;;2;261074880;261074880;-86
2022/02/07 15:53:12;;;;;;;;;0.50;0.50;;;;;;;;2;261075654;261075654;-85
2022/02/07 16:01:27;;;;;;;;;0.50;0.50;;;;;;;;2;261075181;261075181;-90
2022/02/07 16:10:34;;;;;;;;;12.00;1.50;;;;;;;;2;261073263;261073263;-90
2022/02/07 16:18:49;;;;;;;;;0.00;0.00;;;;;;;;2;261075558;261075558;-88
2022/02/07 16:27:50;;;;;;;;;3.50;3.50;;;;;;;;2;261075132;261075132;-90
2022/02/07 16:36:05;;;;;;;;;2.00;2.00;;;;;;;;2;261078248;261078248;-92
2022/02/07 16:45:14;;;;;;;;;2.50;2.50;;;;;;;;2;261074001;261074001;-91
2022/02/07 16:53:29;;;;;;;;;19.50;2.50;;;;;;;;2;261070926;261070926;-92
2022/02/07 17:02:29;;;;;;;;;5.00;5.00;;;;;;;;2;261074332;261074332;-90
2022/02/07 17:10:47;;;;;;;;;5.50;1.50;;;;;;;;2;261071989;261071989;-90
2022/02/07 17:19:47;;;;;;;;;12.50;5.50;;;;;;;;2;261074129;261074129;-91
2022/02/07 17:28:03;;;;;;;;;5.00;1.50;;;;;;;;2;261073117;261073117;-89
2022/02/07 17:37:04;;;;;;;;;2.00;2.00;;;;;;;;2;261065698;261065698;-89
2022/02/07 17:45:21;;;;;;;;;5.00;2.00;;;;;;;;2;261064034;261064034;-89
2022/02/07 17:54:23;;;;;;;;;3.00;3.00;;;;;;;;2;261062155;261062155;-89
2022/02/07 18:02:39;;;;;;;;;4.50;4.50;;;;;;;;2;261074979;261074979;-89
2022/02/07 18:11:39;;;;;;;;;1.50;1.50;;;;;;;;2;261077011;261077011;-90
2022/02/07 18:20:06;;;;;;;;;6.50;6.50;;;;;;;;2;261076078;261076078;-89
2022/02/07 18:29:07;;;;;;;;;3.50;3.50;;;;;;;;2;261074683;261074683;-86
2022/02/07 18:37:22;;;;;;;;;5.00;5.00;;;;;;;;2;261076188;261076188;-91
2022/02/07 18:46:23;;;;;;;;;2.50;2.50;;;;;;;;2;261070863;261070863;-90
2022/02/07 18:54:38;;;;;;;;;15.50;4.00;;;;;;;;2;261075256;261075256;-86
2022/02/07 19:03:42;;;;;;;;;3.00;3.00;;;;;;;;2;261076361;261076361;-88
2022/02/07 19:11:58;;;;;;;;;6.00;6.00;;;;;;;;2;261073768;261073768;-87
2022/02/07 19:21:01;;;;;;;;;6.50;6.50;;;;;;;;2;261076070;261076070;-87
2022/02/07 19:29:24;;;;;;;;;6.00;6.00;;;;;;;;2;261074888;261074888;-86
2022/02/07 19:38:25;;;;;;;;;2.50;2.50;;;;;;;;2;261074092;261074092;-87
2022/02/07 19:46:43;;;;;;;;;8.50;8.50;;;;;;;;2;261077271;261077271;-90
2022/02/07 19:55:44;;;;;;;;;10.50;4.50;;;;;;;;2;261079626;261079626;-90
2022/02/07 20:04:01;;;;;;;;;5.00;5.00;;;;;;;;2;261075304;261075304;-90
2022/02/07 20:13:02;;;;;;;;;14.00;9.50;;;;;;;;2;261078496;261078496;-88
2022/02/07 20:21:18;;;;;;;;;11.00;6.50;;;;;;;;2;261074684;261074684;-88
2022/02/07 20:30:18;;;;;;;;;17.50;5.50;;;;;;;;2;261074604;261074604;-89
2022/02/07 20:38:36;;;;;;;;;18.50;6.50;;;;;;;;2;260855392;260855392;-90
2022/02/07 20:47:39;;;;;;;;;5.50;5.50;;;;;;;;2;261071555;261071555;-88
2022/02/07 20:55:55;;;;;;;;;10.00;8.00;;;;;;;;2;261077534;261077534;-88
2022/02/07 21:04:58;;;;;;;;;16.00;5.00;;;;;;;;2;261076215;261076215;-87
2022/02/07 21:13:15;;;;;;;;;10.00;10.00;;;;;;;;2;261076631;261076631;-87
2022/02/07 21:22:18;;;;;;;;;30.00;16.00;;;;;;;;2;261075182;261075182;-88
2022/02/07 21:30:35;;;;;;;;;12.50;12.50;;;;;;;;2;261074822;261074822;-88
2022/02/07 21:39:37;;;;;;;;;10.50;10.50;;;;;;;;2;261073714;261073714;-88
2022/02/07 21:47:53;;;;;;;;;10.00;8.50;;;;;;;;2;261075090;261075090;-86
2022/02/07 21:56:56;;;;;;;;;14.50;11.00;;;;;;;;2;261075572;261075572;-85
2022/02/07 22:05:12;;;;;;;;;3.50;3.50;;;;;;;;2;261075425;261075425;-85
2022/02/07 22:14:37;;;;;;;;;4.00;4.00;;;;;;;;2;261077849;261077849;-86
2022/02/07 22:22:53;;;;;;;;;5.50;5.50;;;;;;;;2;261077939;261077939;-86
2022/02/07 22:31:59;;;;;;;;;12.00;3.50;;;;;;;;2;261075484;261075484;-85
2022/02/07 22:40:14;;;;;;;;;1.50;1.50;;;;;;;;2;261077159;261077159;-87
2022/02/07 22:49:15;;;;;;;;;3.00;3.00;;;;;;;;2;261077280;261077280;-86
2022/02/07 22:57:33;;;;;;;;;10.00;6.00;;;;;;;;2;261076227;261076227;-86
2022/02/07 23:06:34;;;;;;;;;15.50;15.50;;;;;;;;2;261074256;261074256;-87
2022/02/07 23:15:21;;;;;;;;;10.00;10.00;;;;;;;;2;261055961;261055961;-86
2022/02/07 23:42:21;;;;;;;;;5.50;5.50;;;;;;;;2;261075098;261075098;-86
2022/02/07 23:50:53;;;;;;;;;2.00;2.00;;;;;;;;2;261075599;261075599;-86
